createdAt,value
2016-11-29T00:00:20.835Z,67.89
2016-11-29T00:01:29.525Z,68.65
2016-11-29T00:02:38.263Z,69.18
2016-11-29T00:03:46.949Z,69.37
2016-11-29T00:04:55.633Z,69.18
2016-11-29T00:06:04.319Z,69.65
2016-11-29T00:07:13.007Z,69.37
2016-11-29T00:08:21.953Z,69.74
2016-11-29T00:09:30.640Z,69.56
2016-11-29T00:10:39.324Z,70.12
2016-11-29T00:11:48.021Z,69.84
2016-11-29T00:12:56.731Z,69.56
2016-11-29T00:14:05.467Z,69.27
2016-11-29T00:15:14.157Z,70.03
2016-11-29T00:16:22.842Z,70.03
2016-11-29T00:17:31.560Z,70.21
2016-11-29T00:18:40.246Z,70.21
2016-11-29T00:19:48.981Z,69.78
2016-11-29T00:20:57.669Z,69.27
2016-11-29T00:22:06.357Z,69.31
2016-11-29T00:23:15.048Z,68.27
2016-11-29T00:24:23.735Z,68.65
2016-11-29T00:25:32.475Z,68.36
2016-11-29T00:26:41.167Z,68.46
2016-11-29T00:27:49.853Z,69.49
2016-11-29T00:28:58.536Z,69.31
2016-11-29T00:30:07.225Z,69.31
2016-11-29T00:31:15.963Z,69.4
2016-11-29T00:32:24.646Z,69.31
2016-11-29T00:33:33.675Z,69.31
2016-11-29T00:34:42.360Z,69.78
2016-11-29T00:35:51.049Z,69.59
2016-11-29T00:36:59.786Z,69.78
2016-11-29T00:38:08.478Z,69.78
2016-11-29T00:39:17.166Z,70.54
2016-11-29T00:40:25.854Z,70.54
2016-11-29T00:41:34.535Z,70.16
2016-11-29T00:42:43.319Z,69.68
2016-11-29T00:43:52.000Z,69.68
2016-11-29T00:45:00.686Z,69.68
2016-11-29T00:46:09.378Z,70.35
2016-11-29T00:47:18.073Z,70.35
2016-11-29T00:48:26.811Z,70.06
2016-11-29T00:49:35.542Z,69.49
2016-11-29T00:50:44.251Z,69.31
2016-11-29T00:51:52.935Z,69.31
2016-11-29T00:53:01.622Z,69.68
2016-11-29T00:54:10.374Z,70.25
2016-11-29T00:55:19.056Z,70.59
2016-11-29T00:56:27.743Z,70.59
2016-11-29T00:57:36.430Z,70.12
2016-11-29T00:58:45.119Z,70.69
2016-11-29T00:59:54.170Z,70.31
2016-11-29T01:01:02.855Z,70.69
2016-11-29T01:02:11.537Z,70.5
2016-11-29T01:03:20.222Z,70.78
2016-11-29T01:04:28.916Z,71.35
2016-11-29T01:05:37.660Z,71.54
2016-11-29T01:06:46.350Z,70.59
2016-11-29T01:07:55.043Z,70.4
2016-11-29T01:09:03.731Z,70.12
2016-11-29T01:10:12.418Z,70.12
2016-11-29T01:11:21.180Z,69.93
2016-11-29T01:12:29.866Z,69.46
2016-11-29T01:13:38.555Z,69.21
2016-11-29T01:14:47.239Z,69.12
2016-11-29T01:15:55.924Z,69.02
2016-11-29T01:17:04.618Z,68.93
2016-11-29T01:18:13.304Z,69.4
2016-11-29T01:19:21.987Z,69.87
2016-11-29T01:20:30.678Z,70.35
2016-11-29T01:21:39.364Z,70.35
2016-11-29T01:22:48.050Z,70.97
2016-11-29T01:23:56.762Z,70.31
2016-11-29T01:25:05.769Z,70.5
2016-11-29T01:26:14.453Z,70.78
2016-11-29T01:27:23.142Z,70.4
2016-11-29T01:28:31.859Z,70.31
2016-11-29T01:29:40.547Z,70.5
2016-11-29T01:30:49.230Z,70.21
2016-11-29T01:31:57.917Z,70.78
2016-11-29T01:33:06.608Z,70.78
2016-11-29T01:34:15.295Z,70.21
2016-11-29T01:35:24.010Z,70.31
2016-11-29T01:36:32.699Z,70.21
2016-11-29T01:37:41.383Z,70.31
2016-11-29T01:38:50.065Z,70.78
2016-11-29T01:39:58.751Z,70.5
2016-11-29T01:41:07.438Z,70.78
2016-11-29T01:42:16.130Z,71.35
2016-11-29T01:43:24.814Z,71.64
2016-11-29T01:44:33.501Z,71.73
2016-11-29T01:45:42.212Z,72.11
2016-11-29T01:46:50.898Z,72.3
2016-11-29T01:47:59.579Z,73.05
2016-11-29T01:49:08.265Z,72.77
2016-11-29T01:50:16.949Z,72.86
2016-11-29T01:51:25.636Z,73.05
2016-11-29T01:52:34.353Z,73.05
2016-11-29T01:53:43.355Z,72.3
2016-11-29T01:54:52.044Z,72.39
2016-11-29T01:56:00.733Z,72.86
2016-11-29T01:57:09.427Z,72.39
2016-11-29T01:58:18.111Z,72.11
2016-11-29T01:59:26.797Z,72.86
2016-11-29T02:00:35.493Z,72.77
2016-11-29T02:01:44.184Z,73.05
2016-11-29T02:02:52.871Z,73.05
2016-11-29T02:04:01.560Z,73.14
2016-11-29T02:05:10.244Z,72.86
2016-11-29T02:06:18.929Z,72.96
2016-11-29T02:07:27.615Z,72.96
2016-11-29T02:08:36.304Z,72.86
2016-11-29T02:09:44.988Z,72.2
2016-11-29T02:10:53.670Z,72.02
2016-11-29T02:12:02.390Z,72.2
2016-11-29T02:13:11.075Z,71.73
2016-11-29T02:14:19.793Z,71.92
2016-11-29T02:15:28.482Z,72.3
2016-11-29T02:16:37.168Z,72.02
2016-11-29T02:17:45.854Z,72.2
2016-11-29T02:18:54.539Z,72.96
2016-11-29T02:20:03.227Z,72.2
2016-11-29T02:21:11.908Z,72.49
2016-11-29T02:22:20.593Z,72.96
2016-11-29T02:23:29.279Z,73.14
2016-11-29T02:24:37.962Z,73.24
2016-11-29T02:25:46.644Z,72.96
2016-11-29T02:26:55.333Z,73.24
2016-11-29T02:28:04.030Z,73.33
2016-11-29T02:29:12.717Z,73.52
2016-11-29T02:30:21.399Z,73.24
2016-11-29T02:31:30.087Z,73.43
2016-11-29T02:32:38.776Z,73.9
2016-11-29T02:33:47.465Z,73.62
2016-11-29T02:34:56.184Z,73.71
2016-11-29T02:36:04.870Z,73.62
2016-11-29T02:37:13.554Z,73.9
2016-11-29T02:38:22.241Z,73.05
2016-11-29T02:39:30.928Z,73.71
2016-11-29T02:40:39.619Z,73.33
2016-11-29T02:41:48.312Z,73.24
2016-11-29T02:42:56.994Z,73.14
2016-11-29T02:44:05.683Z,73.24
2016-11-29T02:45:14.370Z,72.86
2016-11-29T02:46:23.057Z,73.14
2016-11-29T02:47:31.740Z,72.2
2016-11-29T02:48:40.424Z,71.92
2016-11-29T02:49:49.113Z,72.2
2016-11-29T02:50:57.793Z,71.64
2016-11-29T02:52:06.479Z,72.11
2016-11-29T02:53:15.164Z,71.16
2016-11-29T02:54:23.847Z,71.26
2016-11-29T02:55:32.540Z,71.54
2016-11-29T02:56:41.225Z,71.07
2016-11-29T02:57:49.909Z,71.83
2016-11-29T02:58:58.916Z,72.2
2016-11-29T03:00:07.603Z,72.11
2016-11-29T03:01:16.289Z,73.24
2016-11-29T03:02:24.973Z,73.24
2016-11-29T03:03:33.655Z,73.05
2016-11-29T03:04:42.340Z,73.24
2016-11-29T03:05:51.028Z,73.43
2016-11-29T03:06:59.717Z,73.81
2016-11-29T03:08:08.407Z,73.9
2016-11-29T03:09:17.091Z,74.38
2016-11-29T03:10:25.775Z,74.57
2016-11-29T03:11:34.466Z,74.28
2016-11-29T03:12:43.179Z,74.57
2016-11-29T03:13:51.868Z,74.76
2016-11-29T03:15:00.561Z,74.85
2016-11-29T03:16:09.261Z,74.81
2016-11-29T03:17:17.943Z,74.76
2016-11-29T03:18:26.626Z,75.38
2016-11-29T03:19:35.315Z,74.9
2016-11-29T03:20:44.006Z,75.38
2016-11-29T03:21:52.692Z,75.66
2016-11-29T03:23:01.481Z,76.04
2016-11-29T03:24:10.173Z,75.47
2016-11-29T03:25:18.863Z,75.76
2016-11-29T03:26:27.574Z,75.95
2016-11-29T03:27:36.257Z,76.42
2016-11-29T03:28:44.946Z,76.04
2016-11-29T03:29:53.639Z,75.95
2016-11-29T03:31:02.326Z,75.95
2016-11-29T03:32:11.019Z,75.38
2016-11-29T03:33:19.702Z,75.47
2016-11-29T03:34:28.387Z,75.76
2016-11-29T03:35:37.073Z,75.76
2016-11-29T03:36:45.757Z,75.66
2016-11-29T03:37:54.438Z,75.76
2016-11-29T03:39:03.129Z,75.85
2016-11-29T03:40:11.814Z,75
2016-11-29T03:41:20.833Z,75.38
2016-11-29T03:42:29.520Z,75.28
2016-11-29T03:43:38.205Z,75.09
2016-11-29T03:44:46.897Z,75.38
2016-11-29T03:45:55.615Z,75
2016-11-29T03:47:04.305Z,75
2016-11-29T03:48:12.989Z,75.19
2016-11-29T03:49:21.671Z,75.28
2016-11-29T03:50:30.353Z,74.71
2016-11-29T03:51:39.040Z,74.71
2016-11-29T03:52:47.724Z,74.34
2016-11-29T03:53:56.412Z,74.57
2016-11-29T03:55:05.099Z,74.28
2016-11-29T03:56:13.787Z,73.62
2016-11-29T03:57:22.472Z,73.81
2016-11-29T03:58:31.162Z,73.43
2016-11-29T03:59:39.846Z,73.05
2016-11-29T04:00:48.527Z,72.58
2016-11-29T04:01:57.228Z,72.02
2016-11-29T04:03:06.224Z,72.11
2016-11-29T04:04:14.906Z,72.11
2016-11-29T04:05:23.584Z,72.11
2016-11-29T04:06:32.270Z,72.11
2016-11-29T04:07:40.954Z,72.77
2016-11-29T04:08:49.641Z,72.77
2016-11-29T04:09:58.326Z,73.05
2016-11-29T04:11:07.021Z,72.77
2016-11-29T04:12:15.706Z,72.02
2016-11-29T04:13:24.399Z,72.39
2016-11-29T04:14:33.080Z,71.83
2016-11-29T04:15:41.800Z,72.02
2016-11-29T04:16:50.485Z,70.88
2016-11-29T04:17:59.171Z,71.16
2016-11-29T04:19:07.856Z,70.69
2016-11-29T04:20:16.545Z,70.59
2016-11-29T04:21:25.265Z,70.5
2016-11-29T04:22:33.979Z,70.88
2016-11-29T04:23:42.983Z,70.88
2016-11-29T04:24:51.665Z,70.88
2016-11-29T04:26:00.346Z,70.69
2016-11-29T04:27:09.033Z,70.97
2016-11-29T04:28:17.721Z,70.78
2016-11-29T04:29:26.420Z,70.59
2016-11-29T04:30:35.104Z,70.97
2016-11-29T04:31:43.786Z,70.69
2016-11-29T04:32:52.473Z,70.59
2016-11-29T04:34:01.156Z,70.5
2016-11-29T04:35:09.846Z,70.4
2016-11-29T04:36:18.534Z,70.97
2016-11-29T04:37:27.218Z,71.07
2016-11-29T04:38:35.904Z,71.83
2016-11-29T04:39:44.595Z,72.02
2016-11-29T04:40:53.283Z,71.83
2016-11-29T04:42:01.973Z,71.92
2016-11-29T04:43:10.663Z,72.2
2016-11-29T04:44:19.348Z,73.14
2016-11-29T04:45:28.028Z,72.2
2016-11-29T04:46:36.717Z,72.67
2016-11-29T04:47:45.406Z,72.11
2016-11-29T04:48:54.089Z,72.02
2016-11-29T04:50:03.095Z,72.3
2016-11-29T04:51:11.781Z,72.3
2016-11-29T04:52:20.463Z,72.96
2016-11-29T04:53:29.462Z,71.92
2016-11-29T04:54:38.463Z,72.11
2016-11-29T04:55:47.153Z,71.83
2016-11-29T04:56:55.834Z,72.86
2016-11-29T04:58:04.518Z,72.77
2016-11-29T04:59:13.204Z,72.96
2016-11-29T05:00:21.884Z,72.96
2016-11-29T05:01:30.564Z,72.96
2016-11-29T05:02:39.244Z,73.24
2016-11-29T05:03:47.925Z,73.62
2016-11-29T05:04:56.612Z,73.86
2016-11-29T05:06:05.297Z,74.19
2016-11-29T05:07:13.985Z,73.52
2016-11-29T05:08:22.671Z,73.3
2016-11-29T05:09:31.351Z,72.96
2016-11-29T05:10:40.036Z,72.77
2016-11-29T05:11:48.718Z,72.86
2016-11-29T05:12:57.401Z,72.39
2016-11-29T05:14:06.083Z,72.02
2016-11-29T05:15:14.764Z,71.73
2016-11-29T05:16:23.448Z,71.26
2016-11-29T05:17:32.132Z,70.88
2016-11-29T05:18:40.813Z,71.16
2016-11-29T05:19:49.497Z,71.26
2016-11-29T05:20:58.185Z,70.97
2016-11-29T05:22:06.866Z,70.78
2016-11-29T05:23:15.547Z,70.4
2016-11-29T05:24:24.230Z,70.69
2016-11-29T05:25:32.912Z,70.88
2016-11-29T05:26:41.596Z,70.78
2016-11-29T05:27:50.311Z,70.78
2016-11-29T05:28:58.992Z,71.35
2016-11-29T05:30:07.679Z,70.97
2016-11-29T05:31:16.366Z,72.02
2016-11-29T05:32:25.049Z,72.02
2016-11-29T05:33:33.727Z,71.64
2016-11-29T05:34:42.724Z,71.92
2016-11-29T05:35:51.409Z,71.16
2016-11-29T05:37:00.091Z,71.54
2016-11-29T05:38:08.773Z,71.64
2016-11-29T05:39:17.454Z,71.54
2016-11-29T05:40:26.143Z,71.73
2016-11-29T05:41:34.837Z,72.11
2016-11-29T05:42:43.517Z,72.3
2016-11-29T05:43:52.200Z,72.86
2016-11-29T05:45:01.246Z,73.11
2016-11-29T05:46:09.930Z,73.11
2016-11-29T05:47:18.615Z,72.92
2016-11-29T05:48:27.301Z,73.11
2016-11-29T05:49:35.984Z,72.96
2016-11-29T05:50:44.662Z,72.96
2016-11-29T05:51:53.347Z,72.86
2016-11-29T05:53:02.027Z,71.98
2016-11-29T05:54:10.714Z,72.2
2016-11-29T05:55:19.397Z,72.11
2016-11-29T05:56:28.078Z,71.73
2016-11-29T05:57:36.761Z,70.78
2016-11-29T05:58:45.439Z,70.5
2016-11-29T05:59:54.127Z,69.37
2016-11-29T06:01:02.809Z,68.52
2016-11-29T06:02:11.490Z,67.76
2016-11-29T06:03:20.177Z,67.51
2016-11-29T06:04:28.859Z,67.03
2016-11-29T06:05:37.539Z,66.94
2016-11-29T06:06:46.219Z,66.56
2016-11-29T06:07:54.914Z,66.28
2016-11-29T06:09:03.595Z,66.47
2016-11-29T06:10:12.278Z,66.09
2016-11-29T06:11:20.960Z,66.28
2016-11-29T06:12:29.673Z,66.66
2016-11-29T06:13:38.353Z,67.51
2016-11-29T06:14:47.041Z,66.94
2016-11-29T06:15:55.735Z,67.89
2016-11-29T06:17:04.732Z,68.17
2016-11-29T06:18:13.414Z,68.65
2016-11-29T06:19:22.096Z,69.21
2016-11-29T06:20:30.780Z,69.4
2016-11-29T06:21:39.469Z,69.46
2016-11-29T06:22:48.156Z,69.56
2016-11-29T06:23:57.183Z,70.03
2016-11-29T06:25:05.867Z,70.4
2016-11-29T06:26:14.551Z,70.78
2016-11-29T06:27:23.238Z,70.31
2016-11-29T06:28:31.918Z,70.69
2016-11-29T06:29:40.597Z,70.59
2016-11-29T06:30:49.287Z,70.59
2016-11-29T06:31:57.970Z,70.78
2016-11-29T06:33:06.697Z,70.03
2016-11-29T06:34:15.388Z,70.21
2016-11-29T06:35:24.072Z,70.03
2016-11-29T06:36:32.784Z,70.31
2016-11-29T06:37:41.469Z,70.31
2016-11-29T06:38:50.147Z,70.5
2016-11-29T06:39:58.828Z,70.31
2016-11-29T06:41:07.517Z,70.21
2016-11-29T06:42:16.225Z,69.93
2016-11-29T06:43:24.905Z,70.21
2016-11-29T06:44:33.591Z,69.46
2016-11-29T06:45:42.267Z,69.74
2016-11-29T06:46:50.947Z,69.46
2016-11-29T06:47:59.952Z,69.27
2016-11-29T06:49:08.954Z,69.65
2016-11-29T06:50:17.632Z,69.27
2016-11-29T06:51:26.322Z,69.18
2016-11-29T06:52:35.003Z,69.18
2016-11-29T06:53:43.687Z,69.27
2016-11-29T06:54:52.375Z,70.12
2016-11-29T06:56:01.062Z,69.74
2016-11-29T06:57:09.751Z,69.27
2016-11-29T06:58:18.447Z,69.84
2016-11-29T06:59:27.129Z,70.03
2016-11-29T07:00:35.814Z,70.31
2016-11-29T07:01:44.504Z,70.12
2016-11-29T07:02:53.187Z,70.03
2016-11-29T07:04:01.907Z,70.21
2016-11-29T07:05:10.587Z,69.93
2016-11-29T07:06:19.279Z,70.21
2016-11-29T07:07:27.959Z,70.59
2016-11-29T07:08:36.648Z,70.59
2016-11-29T07:09:45.336Z,70.5
2016-11-29T07:10:54.017Z,70.69
2016-11-29T07:12:02.701Z,70.69
2016-11-29T07:13:11.390Z,70.59
2016-11-29T07:14:20.077Z,70.59
2016-11-29T07:15:28.759Z,70.21
2016-11-29T07:16:37.445Z,69.74
2016-11-29T07:17:46.126Z,69.84
2016-11-29T07:18:54.814Z,70.12
2016-11-29T07:20:03.502Z,69.84
2016-11-29T07:21:12.190Z,69.65
2016-11-29T07:22:20.872Z,70.12
2016-11-29T07:23:29.561Z,70.21
2016-11-29T07:24:38.246Z,70.59
2016-11-29T07:25:46.926Z,70.78
2016-11-29T07:26:55.608Z,70.69
2016-11-29T07:28:04.290Z,70.97
2016-11-29T07:29:12.973Z,70.78
2016-11-29T07:30:21.656Z,70.4
2016-11-29T07:31:30.374Z,70.31
2016-11-29T07:32:39.055Z,70.78
2016-11-29T07:33:47.735Z,70.4
2016-11-29T07:34:56.419Z,70.69
2016-11-29T07:36:05.115Z,70.5
2016-11-29T07:37:13.802Z,70.69
2016-11-29T07:38:22.485Z,70.5
2016-11-29T07:39:31.172Z,71.73
2016-11-29T07:40:39.853Z,72.2
2016-11-29T07:41:48.533Z,71.92
2016-11-29T07:42:57.217Z,72.39
2016-11-29T07:44:05.908Z,72.96
2016-11-29T07:45:14.900Z,72.86
2016-11-29T07:46:23.585Z,73.14
2016-11-29T07:47:32.270Z,73.14
2016-11-29T07:48:40.951Z,74.09
2016-11-29T07:49:49.636Z,74.09
2016-11-29T07:50:58.315Z,73.52
2016-11-29T07:52:06.995Z,73.52
2016-11-29T07:53:15.682Z,73.24
2016-11-29T07:54:24.397Z,72.77
2016-11-29T07:55:33.079Z,72.11
2016-11-29T07:56:41.758Z,72.39
2016-11-29T07:57:50.753Z,72.02
2016-11-29T07:58:59.441Z,72.49
2016-11-29T08:00:08.125Z,72.3
2016-11-29T08:01:16.820Z,72.02
2016-11-29T08:02:25.829Z,72.02
2016-11-29T08:03:34.514Z,72.02
2016-11-29T08:04:43.193Z,71.73
2016-11-29T08:05:51.876Z,71.73
2016-11-29T08:07:00.563Z,71.35
2016-11-29T08:08:09.242Z,70.97
2016-11-29T08:09:17.927Z,70.78
2016-11-29T08:10:26.611Z,71.16
2016-11-29T08:11:35.301Z,70.69
2016-11-29T08:12:43.980Z,70.31
2016-11-29T08:13:52.665Z,70.5
2016-11-29T08:15:01.676Z,70.69
2016-11-29T08:16:10.387Z,70.69
2016-11-29T08:17:19.070Z,70.78
2016-11-29T08:18:27.752Z,71.07
2016-11-29T08:19:36.436Z,70.31
2016-11-29T08:20:45.150Z,70.59
2016-11-29T08:21:53.836Z,70.4
2016-11-29T08:23:02.861Z,70.59
2016-11-29T08:24:11.541Z,70.4
2016-11-29T08:25:20.219Z,70.59
2016-11-29T08:26:28.899Z,70.4
2016-11-29T08:27:37.583Z,70.59
2016-11-29T08:28:46.262Z,70.69
2016-11-29T08:29:54.944Z,70.78
2016-11-29T08:31:03.628Z,70.78
2016-11-29T08:32:12.322Z,70.78
2016-11-29T08:33:21.005Z,70.69
2016-11-29T08:34:29.702Z,70.88
2016-11-29T08:35:38.389Z,70.97
2016-11-29T08:36:47.074Z,70.69
2016-11-29T08:37:55.761Z,70.69
2016-11-29T08:39:04.443Z,70.4
2016-11-29T08:40:13.125Z,70.78
2016-11-29T08:41:21.812Z,70.69
2016-11-29T08:42:30.492Z,71.64
2016-11-29T08:43:39.179Z,71.73
2016-11-29T08:44:47.866Z,70.78
2016-11-29T08:45:56.863Z,70.78
2016-11-29T08:47:05.548Z,70.4
2016-11-29T08:48:14.231Z,70.03
2016-11-29T08:49:23.237Z,69.84
2016-11-29T08:50:32.244Z,69.74
2016-11-29T08:51:40.926Z,69.37
2016-11-29T08:52:49.634Z,69.46
2016-11-29T08:53:58.320Z,69.27
2016-11-29T08:55:07.002Z,69.27
2016-11-29T08:56:15.684Z,69.18
2016-11-29T08:57:24.362Z,69.18
2016-11-29T08:58:33.075Z,69.37
2016-11-29T08:59:41.760Z,69.09
2016-11-29T09:00:50.439Z,69.27
2016-11-29T09:01:59.121Z,69.18
2016-11-29T09:03:07.805Z,68.42
2016-11-29T09:04:16.485Z,67.47
2016-11-29T09:05:25.481Z,67.19
2016-11-29T09:06:34.170Z,67.29
2016-11-29T09:07:42.851Z,67.38
2016-11-29T09:08:51.543Z,67
2016-11-29T09:10:00.224Z,67.13
2016-11-29T09:11:08.919Z,66.91
2016-11-29T09:12:17.621Z,67.76
2016-11-29T09:13:26.348Z,67.76
2016-11-29T09:14:35.072Z,67.66
2016-11-29T09:15:44.066Z,67.7
2016-11-29T09:16:52.757Z,67.22
2016-11-29T09:18:01.446Z,66
2016-11-29T09:19:10.129Z,65.43
2016-11-29T09:20:18.818Z,65.34
2016-11-29T09:21:27.499Z,65.24
2016-11-29T09:22:36.189Z,65.15
2016-11-29T09:23:44.873Z,64.96
2016-11-29T09:24:53.554Z,64.96
2016-11-29T09:26:02.241Z,65.24
2016-11-29T09:27:10.926Z,64.58
2016-11-29T09:28:19.610Z,64.77
2016-11-29T09:29:28.291Z,64.33
2016-11-29T09:30:36.981Z,64.04
2016-11-29T09:31:45.680Z,63.57
2016-11-29T09:32:54.685Z,63.85
2016-11-29T09:34:03.368Z,63.95
2016-11-29T09:35:12.052Z,63.57
2016-11-29T09:36:20.741Z,63.2
2016-11-29T09:37:29.423Z,63.1
2016-11-29T09:38:38.103Z,62.34
2016-11-29T09:39:46.787Z,62.34
2016-11-29T09:40:55.470Z,62.44
2016-11-29T09:42:04.156Z,62.34
2016-11-29T09:43:12.839Z,62.63
2016-11-29T09:44:21.845Z,63.1
2016-11-29T09:45:30.534Z,62.34
2016-11-29T09:46:39.213Z,62.53
2016-11-29T09:47:47.907Z,62.53
2016-11-29T09:48:56.599Z,62.53
2016-11-29T09:50:05.284Z,62.44
2016-11-29T09:51:13.975Z,62.63
2016-11-29T09:52:22.662Z,62.34
2016-11-29T09:53:31.349Z,62.91
2016-11-29T09:54:40.029Z,63.57
2016-11-29T09:55:48.712Z,63.67
2016-11-29T09:56:57.424Z,63.76
2016-11-29T09:58:06.111Z,63.67
2016-11-29T09:59:14.795Z,63.57
2016-11-29T10:00:23.475Z,64.04
2016-11-29T10:01:32.160Z,63.67
2016-11-29T10:02:40.839Z,63.01
2016-11-29T10:03:49.539Z,62.34
2016-11-29T10:04:58.222Z,63.39
2016-11-29T10:06:06.911Z,62.44
2016-11-29T10:07:15.597Z,62.44
2016-11-29T10:08:24.343Z,63.29
2016-11-29T10:09:33.026Z,62.53
2016-11-29T10:10:41.707Z,61.96
2016-11-29T10:11:50.396Z,61.58
2016-11-29T10:12:59.085Z,61.96
2016-11-29T10:14:08.085Z,62.15
2016-11-29T10:15:16.766Z,62.25
2016-11-29T10:16:25.452Z,62.44
2016-11-29T10:17:34.141Z,62.44
2016-11-29T10:18:42.831Z,63.39
2016-11-29T10:19:51.516Z,63.2
2016-11-29T10:21:00.214Z,63.1
2016-11-29T10:22:08.900Z,62.44
2016-11-29T10:23:17.585Z,62.63
2016-11-29T10:24:26.272Z,62.06
2016-11-29T10:25:34.956Z,61.58
2016-11-29T10:26:43.673Z,62.53
2016-11-29T10:27:52.361Z,62.63
2016-11-29T10:29:01.358Z,62.25
2016-11-29T10:30:10.037Z,61.49
2016-11-29T10:31:18.720Z,62.18
2016-11-29T10:32:27.404Z,63.1
2016-11-29T10:33:36.089Z,62.47
2016-11-29T10:34:44.788Z,62.28
2016-11-29T10:35:53.468Z,62.09
2016-11-29T10:37:02.153Z,62.37
2016-11-29T10:38:10.849Z,62.63
2016-11-29T10:39:19.561Z,62.53
2016-11-29T10:40:28.247Z,62.44
2016-11-29T10:41:36.928Z,62.63
2016-11-29T10:42:45.619Z,62.28
2016-11-29T10:43:54.298Z,62.28
2016-11-29T10:45:02.984Z,62.28
2016-11-29T10:46:11.987Z,62.53
2016-11-29T10:47:20.673Z,62.47
2016-11-29T10:48:29.358Z,62.44
2016-11-29T10:49:38.043Z,63.01
2016-11-29T10:50:46.730Z,63.48
2016-11-29T10:51:55.414Z,63.29
2016-11-29T10:53:04.101Z,63.48
2016-11-29T10:54:12.785Z,62.82
2016-11-29T10:55:21.476Z,63.39
2016-11-29T10:56:30.158Z,62.53
2016-11-29T10:57:38.841Z,62.44
2016-11-29T10:58:47.529Z,62.34
2016-11-29T10:59:56.208Z,62.53
2016-11-29T11:01:04.894Z,63.39
2016-11-29T11:02:13.581Z,62.91
2016-11-29T11:03:22.265Z,63.39
2016-11-29T11:04:31.265Z,62.91
2016-11-29T11:05:39.952Z,63.1
2016-11-29T11:06:48.647Z,63.39
2016-11-29T11:07:57.332Z,63.67
2016-11-29T11:09:06.015Z,64.04
2016-11-29T11:10:14.695Z,63.76
2016-11-29T11:11:23.380Z,64.33
2016-11-29T11:12:32.181Z,64.14
2016-11-29T11:13:40.863Z,63.67
2016-11-29T11:14:49.552Z,63.67
2016-11-29T11:15:58.557Z,63.48
2016-11-29T11:17:07.241Z,63.67
2016-11-29T11:18:15.926Z,63.48
2016-11-29T11:19:24.610Z,63.1
2016-11-29T11:20:33.299Z,63.01
2016-11-29T11:21:41.979Z,62.53
2016-11-29T11:22:50.663Z,63.01
2016-11-29T11:23:59.349Z,63.39
2016-11-29T11:25:08.038Z,63.39
2016-11-29T11:26:16.738Z,63.29
2016-11-29T11:27:25.426Z,62.53
2016-11-29T11:28:34.112Z,63.57
2016-11-29T11:29:42.794Z,63.39
2016-11-29T11:30:51.479Z,63.85
2016-11-29T11:32:00.162Z,63.48
2016-11-29T11:33:08.849Z,63.67
2016-11-29T11:34:17.536Z,63.48
2016-11-29T11:35:26.219Z,63.2
2016-11-29T11:36:34.899Z,63.67
2016-11-29T11:37:43.581Z,63.67
2016-11-29T11:38:52.264Z,63.29
2016-11-29T11:40:00.947Z,63.67
2016-11-29T11:41:09.638Z,63.48
2016-11-29T11:42:18.324Z,63.29
2016-11-29T11:43:27.022Z,63.67
2016-11-29T11:44:36.051Z,64.14
2016-11-29T11:45:44.737Z,64.14
2016-11-29T11:46:53.484Z,64.61
2016-11-29T11:48:02.170Z,64.52
2016-11-29T11:49:10.851Z,65.37
2016-11-29T11:50:19.548Z,65.37
2016-11-29T11:51:28.262Z,65.47
2016-11-29T11:52:36.948Z,65.56
2016-11-29T11:53:45.635Z,66.22
2016-11-29T11:54:54.318Z,66.5
2016-11-29T11:56:03.116Z,66.79
2016-11-29T11:57:11.856Z,66.69
2016-11-29T11:58:20.541Z,67.26
2016-11-29T11:59:29.234Z,67.36
2016-11-29T12:00:37.919Z,66.98
2016-11-29T12:01:46.607Z,66.69
2016-11-29T12:02:55.293Z,67.55
2016-11-29T12:04:03.980Z,66.98
2016-11-29T12:05:12.664Z,67.07
2016-11-29T12:06:21.347Z,67.45
2016-11-29T12:07:30.045Z,67.26
2016-11-29T12:08:39.046Z,66.88
2016-11-29T12:09:47.725Z,66.5
2016-11-29T12:10:56.448Z,66.5
2016-11-29T12:12:05.443Z,66.88
2016-11-29T12:13:14.165Z,67.55
2016-11-29T12:14:22.853Z,67.17
2016-11-29T12:15:31.864Z,67.64
2016-11-29T12:16:40.555Z,67.45
2016-11-29T12:17:49.290Z,67.64
2016-11-29T12:18:58.096Z,68.12
2016-11-29T12:20:06.793Z,67.93
2016-11-29T12:21:15.482Z,67.45
2016-11-29T12:22:24.165Z,68.02
2016-11-29T12:23:32.864Z,67.74
2016-11-29T12:24:41.551Z,67.64
2016-11-29T12:25:50.231Z,67.64
2016-11-29T12:26:58.916Z,67.74
2016-11-29T12:28:07.610Z,67.83
2016-11-29T12:29:16.293Z,67.83
2016-11-29T12:30:24.973Z,67.74
2016-11-29T12:31:33.654Z,67.74
2016-11-29T12:32:42.341Z,68.21
2016-11-29T12:33:51.023Z,67.64
2016-11-29T12:34:59.710Z,67.83
2016-11-29T12:36:08.393Z,66.98
2016-11-29T12:37:17.083Z,67.17
2016-11-29T12:38:25.770Z,67.45
2016-11-29T12:39:34.671Z,67.45
2016-11-29T12:40:43.611Z,67.45
2016-11-29T12:41:52.298Z,67.07
2016-11-29T12:43:00.990Z,67.07
2016-11-29T12:44:09.999Z,66.88
2016-11-29T12:45:18.694Z,66.98
2016-11-29T12:46:27.407Z,67.07
2016-11-29T12:47:36.096Z,66.41
2016-11-29T12:48:44.781Z,66.6
2016-11-29T12:49:53.468Z,66.69
2016-11-29T12:51:02.155Z,66.69
2016-11-29T12:52:10.848Z,66.88
2016-11-29T12:53:20.250Z,67.55
2016-11-29T12:54:29.029Z,67.17
2016-11-29T12:55:37.711Z,66.79
2016-11-29T12:56:46.394Z,67.64
2016-11-29T12:57:55.074Z,67.55
2016-11-29T12:59:03.758Z,67.64
2016-11-29T13:00:12.443Z,68.02
2016-11-29T13:01:21.125Z,68.21
2016-11-29T13:02:29.804Z,68.21
2016-11-29T13:03:38.488Z,66.88
2016-11-29T13:04:47.178Z,67.07
2016-11-29T13:05:55.864Z,67.17
2016-11-29T13:07:04.546Z,66.79
2016-11-29T13:08:13.235Z,66.88
2016-11-29T13:09:21.931Z,66.98
2016-11-29T13:10:30.613Z,67.26
2016-11-29T13:11:39.350Z,66.98
2016-11-29T13:12:48.074Z,67.55
2016-11-29T13:13:56.756Z,67.83
2016-11-29T13:15:05.756Z,67.64
2016-11-29T13:16:14.442Z,67.64
2016-11-29T13:17:23.129Z,67.74
2016-11-29T13:18:31.819Z,67.45
2016-11-29T13:19:40.509Z,67.45
2016-11-29T13:20:49.193Z,67.93
2016-11-29T13:21:57.875Z,68.3
2016-11-29T13:23:06.558Z,68.02
2016-11-29T13:24:15.606Z,68.02
2016-11-29T13:25:24.603Z,67.93
2016-11-29T13:26:33.288Z,67.55
2016-11-29T13:27:41.969Z,67.74
2016-11-29T13:28:50.654Z,67.83
2016-11-29T13:29:59.336Z,68.21
2016-11-29T13:31:08.031Z,68.49
2016-11-29T13:32:16.716Z,68.59
2016-11-29T13:33:25.402Z,68.21
2016-11-29T13:34:34.092Z,68.12
2016-11-29T13:35:42.773Z,67.36
2016-11-29T13:36:51.460Z,67.58
2016-11-29T13:38:00.153Z,67.45
2016-11-29T13:39:08.833Z,67.74
2016-11-29T13:40:17.517Z,67.55
2016-11-29T13:41:26.198Z,68.24
2016-11-29T13:42:34.882Z,68.02
2016-11-29T13:43:43.567Z,67.83
2016-11-29T13:44:52.246Z,67.74
2016-11-29T13:46:00.928Z,67.64
2016-11-29T13:47:09.620Z,67.83
2016-11-29T13:48:18.303Z,68.4
2016-11-29T13:49:27.298Z,68.59
2016-11-29T13:50:35.984Z,69.25
2016-11-29T13:51:44.671Z,69.44
2016-11-29T13:52:53.359Z,69.72
2016-11-29T13:54:02.071Z,69.91
2016-11-29T13:55:10.769Z,70.01
2016-11-29T13:56:19.787Z,70.57
2016-11-29T13:57:28.469Z,70.29
2016-11-29T13:58:37.158Z,70.2
2016-11-29T13:59:45.843Z,70.2
2016-11-29T14:00:54.527Z,70.29
2016-11-29T14:02:03.212Z,70.29
2016-11-29T14:03:11.933Z,69.82
2016-11-29T14:04:20.642Z,70.1
2016-11-29T14:05:29.324Z,71.04
2016-11-29T14:06:38.011Z,69.44
2016-11-29T14:07:46.728Z,70.1
2016-11-29T14:08:55.410Z,70.29
2016-11-29T14:10:04.099Z,70.2
2016-11-29T14:11:12.788Z,70.2
2016-11-29T14:12:21.476Z,70.01
2016-11-29T14:13:30.161Z,71.04
2016-11-29T14:14:38.847Z,70.29
2016-11-29T14:15:47.533Z,70.57
2016-11-29T14:16:56.214Z,70.86
2016-11-29T14:18:04.900Z,71.14
2016-11-29T14:19:13.584Z,71.71
2016-11-29T14:20:22.265Z,71.99
2016-11-29T14:21:30.959Z,72.28
2016-11-29T14:22:39.645Z,71.99
2016-11-29T14:23:48.330Z,71.99
2016-11-29T14:24:57.017Z,71.99
2016-11-29T14:26:05.702Z,72.09
2016-11-29T14:27:14.383Z,72.66
2016-11-29T14:28:23.062Z,73.13
2016-11-29T14:29:32.072Z,73.22
2016-11-29T14:30:40.764Z,73.75
2016-11-29T14:31:49.449Z,74.07
2016-11-29T14:32:58.137Z,74.69
2016-11-29T14:34:06.824Z,74.51
2016-11-29T14:35:15.506Z,73.66
2016-11-29T14:36:24.192Z,73.85
2016-11-29T14:37:32.875Z,74.51
2016-11-29T14:38:41.564Z,73.94
2016-11-29T14:39:50.248Z,74.13
2016-11-29T14:40:58.937Z,73.94
2016-11-29T14:42:07.625Z,73.94
2016-11-29T14:43:16.310Z,73.79
2016-11-29T14:44:24.993Z,73.37
2016-11-29T14:45:33.714Z,73.32
2016-11-29T14:46:42.427Z,73.28
2016-11-29T14:47:51.113Z,73.18